Time;durP1;ratioP1;P1;durP2;ratioP2;P2;SDS_P1;SDS_P2;PMS_P1;PMS_P2;Temp;Humidity;BMP_temperature;BMP_pressure;BME280_temperature;BME280_humidity;BME280_pressure;Samples;Min_cycle;Max_cycle;Signal;HPM_P1;HPM_P2
2022/05/29 00:00:39;;;;;;;1.53;1.43;;;9.40;99.90;10.30;96581.00;;;;5055196;28;20222;-87
2022/05/29 00:03:29;;;;;;;2.80;1.43;;;9.40;99.90;9.90;96586.00;;;;5055410;28;20209;-85
2022/05/29 00:06:18;;;;;;;1.60;1.40;;;9.20;99.90;9.80;96590.00;;;;5059488;28;20323;-86
2022/05/29 00:09:08;;;;;;;1.60;1.50;;;9.20;99.90;10.20;96598.00;;;;5058405;28;20713;-85
2022/05/29 00:11:57;;;;;;;2.37;1.63;;;9.30;99.90;10.30;96598.00;;;;5072354;28;20199;-86
2022/05/29 00:14:47;;;;;;;1.97;1.57;;;9.10;99.90;10.30;96610.00;;;;5062503;28;20199;-86
2022/05/29 00:17:36;;;;;;;2.17;1.70;;;9.30;99.90;10.40;96604.00;;;;5059511;28;20207;-86
2022/05/29 00:20:26;;;;;;;4.70;1.47;;;9.20;99.90;10.30;96614.00;;;;5062466;28;20618;-86
2022/05/29 00:23:16;;;;;;;2.00;1.60;;;9.30;99.90;10.30;96611.00;;;;5055418;28;20197;-86
2022/05/29 00:26:04;;;;;;;3.07;1.50;;;9.40;99.90;10.30;96603.00;;;;5050888;28;20196;-86
2022/05/29 00:28:53;;;;;;;5.00;1.77;;;9.20;99.90;10.30;96607.00;;;;5057637;28;20575;-86
2022/05/29 00:31:42;;;;;;;1.47;1.17;;;9.30;99.90;10.40;96595.00;;;;5058837;28;20214;-85
2022/05/29 00:34:31;;;;;;;2.80;1.50;;;9.20;99.90;10.20;96592.00;;;;5058204;28;20211;-86
2022/05/29 00:37:22;;;;;;;1.60;1.50;;;9.20;99.90;9.90;96588.00;;;;5056811;28;20204;-87
2022/05/29 00:40:25;;;;;;;4.27;1.57;;;9.30;99.90;9.80;96587.00;;;;5053899;28;20243;-86
2022/05/29 00:43:14;;;;;;;3.07;1.40;;;9.00;99.90;9.70;96582.00;;;;5052172;28;20196;-85
2022/05/29 00:46:04;;;;;;;1.50;1.40;;;9.20;99.90;9.70;96585.00;;;;5057970;28;20204;-87
2022/05/29 00:48:53;;;;;;;1.67;1.43;;;9.10;99.90;9.80;96582.00;;;;5049605;28;20200;-86
2022/05/29 00:51:47;;;;;;;4.97;1.40;;;8.80;99.90;10.00;96583.00;;;;5057220;28;20239;-87
2022/05/29 00:54:42;;;;;;;1.50;1.40;;;8.80;99.90;10.00;96582.00;;;;5056685;28;20212;-86
2022/05/29 00:57:34;;;;;;;5.40;1.93;;;8.90;99.90;9.90;96581.00;;;;5055925;28;20208;-87
2022/05/29 01:00:28;;;;;;;2.33;1.90;;;9.10;99.90;9.70;96573.00;;;;5057748;28;20232;-86
2022/05/29 01:03:17;;;;;;;3.63;1.50;;;8.90;99.90;9.70;96572.00;;;;5056314;28;20204;-86
2022/05/29 01:06:06;;;;;;;4.00;1.73;;;8.90;99.90;9.40;96570.00;;;;5056254;28;20222;-86
2022/05/29 01:08:56;;;;;;;1.47;1.30;;;8.90;99.90;9.20;96561.00;;;;5056806;28;20196;-86
2022/05/29 01:12:02;;;;;;;1.47;1.20;;;8.80;99.90;9.20;96558.00;;;;5057507;28;20648;-87
2022/05/29 01:15:03;;;;;;;2.13;1.27;;;8.50;99.90;9.30;96558.00;;;;5061110;28;20199;-86
2022/05/29 01:18:08;;;;;;;2.77;1.50;;;8.60;99.90;9.00;96550.00;;;;5055976;28;20203;-86
2022/05/29 01:21:23;;;;;;;2.40;1.27;;;8.50;99.90;9.20;96536.00;;;;5053640;28;20211;-86
2022/05/29 01:24:55;;;;;;;2.70;1.70;;;8.50;99.90;9.30;96539.00;;;;5054382;28;20201;-85
2022/05/29 01:28:12;;;;;;;2.67;1.60;;;8.40;99.90;9.40;96519.00;;;;5050606;28;20204;-86
2022/05/29 01:31:06;;;;;;;4.57;1.80;;;8.50;99.90;9.50;96507.00;;;;5050173;28;20223;-87
2022/05/29 01:34:01;;;;;;;10.50;2.23;;;8.50;99.90;9.50;96517.00;;;;5056258;28;20209;-87
2022/05/29 01:37:04;;;;;;;1.47;1.33;;;8.40;99.90;9.30;96522.00;;;;5045622;28;20208;-85
2022/05/29 01:40:06;;;;;;;5.37;1.63;;;8.40;99.90;9.20;96507.00;;;;5047126;28;20239;-87
2022/05/29 01:43:01;;;;;;;1.70;1.53;;;8.60;99.90;9.10;96511.00;;;;5058481;28;20204;-86
2022/05/29 01:45:58;;;;;;;1.60;1.43;;;8.60;99.90;9.30;96504.00;;;;5056791;28;20678;-85
2022/05/29 01:48:54;;;;;;;2.53;1.30;;;8.40;99.90;9.60;96499.00;;;;5057682;28;20201;-85
2022/05/29 01:51:49;;;;;;;4.83;1.37;;;8.80;99.90;9.40;96493.00;;;;5059511;28;20228;-86
2022/05/29 01:54:42;;;;;;;2.50;1.90;;;8.50;99.90;9.20;96480.00;;;;5064952;28;20207;-87
2022/05/29 01:57:37;;;;;;;1.83;1.30;;;8.40;99.90;9.30;96494.00;;;;5057199;28;20205;-85
2022/05/29 02:00:27;;;;;;;1.70;1.60;;;8.50;99.90;9.20;96477.00;;;;5058851;28;20224;-85
2022/05/29 02:03:21;;;;;;;1.50;1.40;;;8.90;99.90;9.00;96478.00;;;;5057219;28;20203;-85
2022/05/29 02:06:15;;;;;;;2.57;1.50;;;8.40;99.90;9.20;96469.00;;;;5056686;28;20728;-86
2022/05/29 02:09:08;;;;;;;4.27;1.77;;;8.50;99.90;9.30;96468.00;;;;5059800;28;20665;-85
2022/05/29 02:12:01;;;;;;;3.43;1.70;;;8.50;99.90;9.30;96458.00;;;;5059676;28;20251;-87
2022/05/29 02:14:59;;;;;;;3.37;1.50;;;8.30;99.90;9.40;96457.00;;;;5069744;28;20206;-87
2022/05/29 02:17:56;;;;;;;2.13;1.93;;;9.30;99.90;9.40;96458.00;;;;5051982;28;20212;-85
2022/05/29 02:20:50;;;;;;;1.53;1.33;;;8.50;99.90;9.20;96455.00;;;;5065381;22;20588;-65
2022/05/29 02:23:46;;;;;;;5.50;1.60;;;8.50;99.90;9.30;96459.00;;;;5051792;28;20205;-66
2022/05/29 02:26:42;;;;;;;4.27;1.87;;;8.70;99.90;9.40;96448.00;;;;5051601;28;20228;-66
2022/05/29 02:29:31;;;;;;;6.57;1.60;;;8.60;99.90;9.40;96448.00;;;;5052311;28;20197;-66
2022/05/29 02:32:31;;;;;;;2.13;1.40;;;8.60;99.90;9.20;96447.00;;;;5042993;28;20582;-66
2022/05/29 02:35:27;;;;;;;2.20;1.83;;;8.60;99.90;9.30;96442.00;;;;5051379;28;20196;-66
2022/05/29 02:38:32;;;;;;;4.83;1.90;;;8.80;99.90;9.30;96451.00;;;;5055372;28;20203;-66
2022/05/29 02:41:31;;;;;;;5.47;1.73;;;8.50;99.90;9.40;96450.00;;;;5058833;28;20745;-66
2022/05/29 02:44:37;;;;;;;1.70;1.60;;;8.60;99.90;9.60;96457.00;;;;5061302;28;20196;-66
2022/05/29 02:47:37;;;;;;;1.53;1.43;;;8.60;99.90;9.60;96454.00;;;;5064268;28;20227;-66
2022/05/29 02:50:38;;;;;;;2.00;1.80;;;8.60;99.90;9.50;96449.00;;;;5059827;28;20207;-66
2022/05/29 02:53:28;;;;;;;3.23;1.77;;;8.60;99.90;9.60;96455.00;;;;5043849;28;20200;-66
2022/05/29 02:56:17;;;;;;;1.87;1.77;;;8.50;99.90;9.50;96446.00;;;;5057311;28;20220;-66
2022/05/29 02:59:06;;;;;;;1.70;1.30;;;8.70;99.90;9.40;96448.00;;;;5060805;28;20211;-66
2022/05/29 03:02:06;;;;;;;1.70;1.30;;;8.60;99.90;9.40;96445.00;;;;5063983;28;20212;-66
2022/05/29 03:05:03;;;;;;;3.50;2.20;;;8.40;99.90;9.70;96435.00;;;;5061790;28;20211;-66
2022/05/29 03:08:13;;;;;;;2.10;1.60;;;8.60;99.90;9.60;96438.00;;;;5055007;28;20200;-66
2022/05/29 03:11:11;;;;;;;2.47;1.97;;;8.60;99.90;9.70;96436.00;;;;5068234;28;20840;-66
2022/05/29 03:14:06;;;;;;;2.30;1.30;;;8.70;99.90;9.90;96436.00;;;;5056119;28;20204;-66
2022/05/29 03:17:11;;;;;;;7.23;2.17;;;8.70;99.90;10.00;96431.00;;;;5058667;28;20224;-66
2022/05/29 03:20:10;;;;;;;1.50;1.20;;;8.80;99.90;10.00;96445.00;;;;5052784;28;20660;-66
2022/05/29 03:23:07;;;;;;;1.73;1.53;;;8.80;99.90;9.90;96447.00;;;;5054784;28;20200;-66
2022/05/29 03:26:01;;;;;;;4.57;1.90;;;8.90;99.90;9.80;96454.00;;;;5057176;28;20223;-65
2022/05/29 03:28:59;;;;;;;3.53;2.00;;;8.90;99.90;9.40;96452.00;;;;5067617;28;20199;-66
2022/05/29 03:31:49;;;;;;;1.83;1.33;;;8.90;99.90;9.50;96440.00;;;;5055914;28;20215;-66
2022/05/29 03:34:38;;;;;;;2.13;1.57;;;8.60;99.90;9.70;96438.00;;;;5054804;28;20204;-66
2022/05/29 03:37:27;;;;;;;2.63;2.43;;;8.70;99.90;9.70;96439.00;;;;5058771;28;20236;-66
2022/05/29 03:40:17;;;;;;;2.53;1.83;;;8.80;99.90;9.90;96440.00;;;;5055894;28;20204;-66
2022/05/29 03:43:06;;;;;;;1.80;1.60;;;8.80;99.90;9.90;96443.00;;;;5052919;28;20218;-66
2022/05/29 03:45:56;;;;;;;2.10;1.90;;;8.80;99.90;9.60;96434.00;;;;5068752;28;20230;-66
2022/05/29 03:48:45;;;;;;;2.27;1.37;;;9.00;99.90;9.10;96430.00;;;;5054113;28;20228;-66
2022/05/29 03:51:34;;;;;;;3.43;1.67;;;8.80;99.90;9.10;96438.00;;;;5057164;28;20204;-66
2022/05/29 03:54:23;;;;;;;3.40;1.60;;;8.60;99.90;9.00;96436.00;;;;5059809;28;20203;-66
2022/05/29 03:57:12;;;;;;;2.10;1.90;;;8.40;99.90;9.30;96425.00;;;;5054268;28;20228;-66
2022/05/29 04:00:00;;;;;;;2.37;1.33;;;8.50;99.90;9.40;96440.00;;;;5062911;28;20205;-66
2022/05/29 04:02:52;;;;;;;2.33;1.53;;;8.50;99.90;9.20;96441.00;;;;5055045;28;20220;-66
2022/05/29 04:05:41;;;;;;;1.63;1.30;;;8.60;99.90;9.40;96437.00;;;;5049254;28;20224;-67
2022/05/29 04:14:45;;;;;;;7.50;2.77;;;8.80;99.90;9.60;96433.00;;;;5049070;28;20208;-66
2022/05/29 04:17:33;;;;;;;2.23;1.70;;;8.70;99.90;9.70;96438.00;;;;5049230;28;20700;-66
2022/05/29 04:20:24;;;;;;;4.40;1.80;;;8.70;99.90;9.70;96435.00;;;;5041863;28;20590;-66
2022/05/29 04:23:13;;;;;;;2.20;2.10;;;8.70;99.90;10.10;96430.00;;;;5039434;28;20220;-66
2022/05/29 04:26:02;;;;;;;5.83;2.33;;;8.90;99.90;10.20;96430.00;;;;5049289;28;20229;-66
2022/05/29 04:28:51;;;;;;;6.30;2.00;;;8.90;99.90;10.20;96427.00;;;;5049832;28;20209;-66
2022/05/29 04:32:59;;;;;;;1.90;1.70;;;9.00;99.90;10.30;96414.00;;;;5059299;28;20196;-66
2022/05/29 04:34:54;;;;;;;3.73;1.63;;;9.00;99.90;10.30;96426.00;;;;5042151;28;20589;-66
2022/05/29 04:37:45;;;;;;;3.17;1.73;;;9.20;99.90;10.10;96416.00;;;;5049584;28;20205;-65
2022/05/29 04:40:34;;;;;;;2.63;1.57;;;9.20;99.90;10.40;96402.00;;;;5049655;28;20197;-66
2022/05/29 04:43:23;;;;;;;5.73;2.40;;;9.20;99.90;10.20;96397.00;;;;5048528;28;20687;-66
2022/05/29 04:46:11;;;;;;;2.03;1.87;;;9.40;99.90;10.10;96398.00;;;;5049516;28;20213;-66
2022/05/29 04:49:00;;;;;;;5.93;2.00;;;9.20;99.90;10.60;96396.00;;;;5048439;28;20204;-66
2022/05/29 04:51:49;;;;;;;3.67;2.00;;;9.40;99.90;10.80;96405.00;;;;5055937;28;20217;-66
2022/05/29 04:54:41;;;;;;;5.20;1.50;;;9.40;99.90;10.70;96409.00;;;;5037862;28;20247;-66
2022/05/29 04:57:30;;;;;;;1.90;1.67;;;9.50;99.90;10.80;96404.00;;;;5046115;28;20220;-66
2022/05/29 05:00:19;;;;;;;5.60;2.27;;;9.60;99.90;10.80;96406.00;;;;5047788;28;20204;-66
2022/05/29 05:03:08;;;;;;;4.50;1.70;;;9.60;99.90;10.80;96397.00;;;;5050680;28;20220;-65
2022/05/29 05:05:57;;;;;;;1.67;1.53;;;9.80;99.90;10.80;96396.00;;;;5048591;28;20235;-65
2022/05/29 05:08:46;;;;;;;1.90;1.60;;;10.30;99.90;10.80;96396.00;;;;5048595;28;20611;-65
2022/05/29 05:11:36;;;;;;;1.93;1.60;;;9.70;99.90;10.80;96406.00;;;;5048239;28;20224;-66
2022/05/29 05:14:27;;;;;;;1.67;1.40;;;9.80;99.90;10.90;96397.00;;;;5048208;28;20200;-66
2022/05/29 05:17:16;;;;;;;2.27;1.43;;;9.70;99.90;10.80;96404.00;;;;5052952;28;20228;-65
2022/05/29 05:20:07;;;;;;;1.90;1.70;;;9.80;99.90;11.10;96402.00;;;;5056358;28;20207;-66
2022/05/29 05:22:55;;;;;;;3.77;1.80;;;9.80;99.90;11.30;96409.00;;;;5053808;28;20220;-65
2022/05/29 05:25:44;;;;;;;3.00;1.73;;;10.00;99.90;11.50;96400.00;;;;5052301;28;20220;-66
2022/05/29 05:28:34;;;;;;;2.43;1.77;;;10.00;99.90;11.20;96402.00;;;;5053547;28;20230;-66
2022/05/29 05:31:24;;;;;;;4.30;1.50;;;10.20;99.90;11.00;96403.00;;;;5042079;28;20203;-66
2022/05/29 05:34:13;;;;;;;2.27;1.63;;;10.10;99.90;11.20;96402.00;;;;5039090;28;20668;-66
2022/05/29 05:37:02;;;;;;;1.67;1.53;;;10.00;99.90;11.30;96411.00;;;;5053910;28;20231;-66
2022/05/29 05:39:52;;;;;;;5.33;2.13;;;10.30;99.90;11.30;96411.00;;;;5061064;28;20211;-66
2022/05/29 05:42:41;;;;;;;1.53;1.43;;;10.10;99.90;11.40;96399.00;;;;5041425;28;20231;-66
2022/05/29 05:45:32;;;;;;;3.73;1.63;;;10.20;99.90;11.50;96401.00;;;;5053977;28;20236;-66
2022/05/29 05:48:23;;;;;;;1.70;1.60;;;10.20;99.90;11.60;96402.00;;;;5050961;28;20200;-66
2022/05/29 05:51:14;;;;;;;1.43;1.33;;;10.20;99.90;11.60;96398.00;;;;5056176;28;20205;-66
2022/05/29 05:54:03;;;;;;;3.13;1.70;;;10.20;99.90;11.60;96390.00;;;;5039108;28;20665;-66
2022/05/29 05:56:52;;;;;;;1.53;1.37;;;10.20;99.90;11.50;96391.00;;;;5051684;28;20262;-66
2022/05/29 05:59:41;;;;;;;1.30;1.20;;;10.50;99.90;11.60;96389.00;;;;5058703;28;20686;-66
2022/05/29 06:02:32;;;;;;;3.60;1.47;;;10.20;99.90;11.70;96379.00;;;;5042459;28;20231;-66
2022/05/29 06:05:21;;;;;;;2.20;1.60;;;10.50;99.90;11.60;96372.00;;;;5051176;28;20193;-66
2022/05/29 06:08:10;;;;;;;2.90;1.77;;;10.40;99.90;11.60;96378.00;;;;5050969;28;20754;-66
2022/05/29 06:10:59;;;;;;;2.17;1.30;;;10.50;99.90;12.10;96371.00;;;;5052966;28;20185;-66
2022/05/29 06:13:47;;;;;;;3.60;1.40;;;10.60;99.90;12.40;96375.00;;;;5040439;28;20201;-66
2022/05/29 06:16:37;;;;;;;2.60;1.70;;;10.80;99.90;12.60;96377.00;;;;5051500;28;20233;-66
2022/05/29 06:19:27;;;;;;;2.73;1.57;;;11.00;99.90;12.60;96373.00;;;;5044817;28;20201;-66
2022/05/29 06:22:16;;;;;;;4.00;1.40;;;11.10;99.90;12.30;96372.00;;;;5050462;28;20196;-66
2022/05/29 06:25:07;;;;;;;2.40;1.37;;;11.20;99.90;12.20;96378.00;;;;5051079;28;20201;-66
2022/05/29 06:27:55;;;;;;;1.30;1.20;;;11.20;99.90;12.00;96374.00;;;;5050872;28;20209;-66
2022/05/29 06:30:44;;;;;;;4.57;1.50;;;11.20;99.90;12.60;96372.00;;;;5053173;28;20220;-66
2022/05/29 06:33:34;;;;;;;3.70;1.40;;;11.40;99.90;12.20;96373.00;;;;5050135;28;20208;-66
2022/05/29 06:36:26;;;;;;;3.90;1.87;;;11.30;99.90;12.60;96359.00;;;;5047345;28;20229;-66
2022/05/29 06:39:15;;;;;;;3.13;2.33;;;11.20;99.90;12.60;96360.00;;;;5045310;28;20205;-66
2022/05/29 06:42:04;;;;;;;1.30;1.20;;;11.30;99.90;12.40;96365.00;;;;5042593;28;20235;-66
2022/05/29 06:44:53;;;;;;;3.43;1.37;;;11.40;99.90;12.30;96351.00;;;;5051370;28;20672;-66
2022/05/29 06:47:42;;;;;;;1.77;1.30;;;11.30;99.90;12.50;96351.00;;;;5049488;28;20211;-66
2022/05/29 06:50:31;;;;;;;1.87;1.40;;;11.30;99.90;12.70;96351.00;;;;5053254;28;20581;-66
2022/05/29 06:53:22;;;;;;;3.90;1.40;;;11.20;99.90;13.00;96340.00;;;;5050400;28;20197;-66
2022/05/29 06:56:12;;;;;;;3.70;1.17;;;11.40;99.90;13.30;96337.00;;;;5042591;28;20233;-66
2022/05/29 06:59:03;;;;;;;3.73;1.33;;;11.60;99.90;13.60;96325.00;;;;5049554;28;20197;-66
2022/05/29 07:08:01;;;;;;;1.87;1.60;;;12.50;99.90;14.70;96320.00;;;;5025986;28;20219;-66
2022/05/29 07:10:51;;;;;;;1.47;1.37;;;12.90;99.90;14.30;96319.00;;;;5053257;28;20204;-66
2022/05/29 07:13:40;;;;;;;4.27;1.30;;;13.10;99.90;14.60;96323.00;;;;5039660;28;20655;-66
2022/05/29 07:16:29;;;;;;;1.63;1.07;;;13.30;99.90;14.90;96331.00;;;;5050206;28;20216;-66
2022/05/29 07:19:20;;;;;;;1.13;1.03;;;13.40;99.90;15.10;96331.00;;;;5042262;28;20201;-66
2022/05/29 07:22:09;;;;;;;1.40;1.30;;;13.50;99.90;15.20;96320.00;;;;5046732;28;20205;-66
2022/05/29 07:24:58;;;;;;;1.37;1.27;;;13.60;99.90;15.70;96319.00;;;;5044802;28;20201;-66
2022/05/29 07:27:48;;;;;;;1.60;1.47;;;13.90;99.90;16.30;96314.00;;;;5049770;28;20204;-66
2022/05/29 07:30:37;;;;;;;1.20;1.10;;;14.20;99.90;16.20;96331.00;;;;5059146;28;20207;-66
2022/05/29 07:33:26;;;;;;;1.80;1.30;;;14.30;99.90;16.20;96337.00;;;;5044561;28;20211;-66
2022/05/29 07:36:17;;;;;;;2.57;1.60;;;14.50;99.90;16.20;96332.00;;;;5044499;28;20742;-66
2022/05/29 07:39:06;;;;;;;2.83;1.80;;;14.60;99.90;16.20;96330.00;;;;5045574;28;20208;-66
2022/05/29 07:45:08;;;;;;;1.73;1.40;;;14.70;99.90;16.10;96329.00;;;;5027364;28;20223;-66
2022/05/29 07:47:56;;;;;;;1.50;1.40;;;14.70;99.90;15.90;96323.00;;;;5045577;28;20208;-66
2022/05/29 07:50:45;;;;;;;2.50;1.70;;;14.70;99.90;16.30;96315.00;;;;5041665;28;20668;-66
2022/05/29 07:53:34;;;;;;;1.47;1.37;;;14.70;99.90;16.00;96316.00;;;;5050635;28;20981;-65
2022/05/29 07:56:23;;;;;;;3.67;1.50;;;14.70;99.90;16.20;96329.00;;;;5050010;28;20227;-66
2022/05/29 07:59:14;;;;;;;2.07;1.40;;;14.70;99.90;15.50;96328.00;;;;5049630;28;20212;-66
2022/05/29 08:02:04;;;;;;;3.63;2.47;;;14.70;99.90;14.90;96332.00;;;;5044097;28;20196;-65
2022/05/29 08:04:59;;;;;;;2.57;2.03;;;14.50;99.90;15.30;96338.00;;;;5043451;28;20601;-66
2022/05/29 08:07:49;;;;;;;1.77;1.57;;;14.20;99.90;15.20;96338.00;;;;5040269;28;20702;-65
2022/05/29 08:10:41;;;;;;;3.37;1.47;;;14.10;99.90;15.00;96335.00;;;;5042643;28;20205;-66
2022/05/29 08:13:31;;;;;;;1.40;1.30;;;14.00;99.90;14.40;96331.00;;;;5045982;28;20197;-66
2022/05/29 08:16:20;;;;;;;2.17;1.50;;;13.80;99.90;14.50;96341.00;;;;5048534;28;20605;-66
2022/05/29 08:19:10;;;;;;;2.50;1.50;;;13.70;99.90;14.40;96336.00;;;;5042217;28;20234;-66
2022/05/29 08:21:59;;;;;;;4.10;2.17;;;13.60;99.90;14.50;96331.00;;;;5036327;28;20215;-65
2022/05/29 08:31:01;;;;;;;1.77;1.40;;;13.40;99.90;14.60;96313.00;;;;5043956;28;20204;-66
2022/05/29 08:33:50;;;;;;;5.57;1.87;;;13.40;99.90;14.40;96315.00;;;;5043234;28;20232;-65
2022/05/29 08:36:40;;;;;;;2.80;1.60;;;13.40;99.90;14.40;96311.00;;;;5039894;28;20574;-66
2022/05/29 08:39:29;;;;;;;4.30;2.03;;;13.40;99.90;14.60;96313.00;;;;5039496;28;20204;-65
2022/05/29 08:42:20;;;;;;;2.37;1.53;;;13.40;99.90;14.70;96306.00;;;;5041814;28;20215;-70
2022/05/29 08:45:12;;;;;;;2.60;1.80;;;13.50;99.90;14.70;96311.00;;;;5037192;28;20228;-70
2022/05/29 08:48:02;;;;;;;2.30;1.60;;;13.50;99.90;14.70;96303.00;;;;5040657;28;20201;-70
2022/05/29 08:51:05;;;;;;;2.33;1.97;;;13.50;99.90;14.30;96310.00;;;;5038521;28;20208;-71
2022/05/29 08:54:10;;;;;;;3.23;1.50;;;13.40;99.90;14.40;96307.00;;;;5043823;28;20193;-70
2022/05/29 08:57:14;;;;;;;2.13;1.43;;;13.50;99.90;14.40;96308.00;;;;5038926;28;20221;-72
2022/05/29 09:00:07;;;;;;;2.53;1.97;;;13.50;99.90;14.20;96291.00;;;;5040528;28;20192;-67
2022/05/29 09:03:29;;;;;;;5.93;3.20;;;13.50;99.90;14.20;96286.00;;;;5038683;28;20211;-66
2022/05/29 09:06:25;;;;;;;4.80;2.30;;;13.40;99.90;14.50;96286.00;;;;5044508;28;20223;-66
2022/05/29 09:09:25;;;;;;;3.47;3.17;;;13.40;99.90;14.40;96291.00;;;;5039577;28;20656;-67
2022/05/29 09:12:23;;;;;;;3.03;2.30;;;13.50;99.90;14.50;96306.00;;;;5040926;28;20196;-66
2022/05/29 09:15:16;;;;;;;2.20;2.00;;;13.60;99.90;14.90;96295.00;;;;5040033;28;20204;-66
2022/05/29 09:18:12;;;;;;;3.67;2.87;;;13.60;99.90;15.00;96309.00;;;;5043906;28;20196;-66
2022/05/29 09:21:07;;;;;;;3.10;2.20;;;13.70;99.90;15.30;96305.00;;;;5034905;28;20228;-66
2022/05/29 09:24:03;;;;;;;3.00;2.00;;;13.80;99.90;14.60;96300.00;;;;5032341;28;20228;-65
2022/05/29 09:26:54;;;;;;;3.03;1.77;;;13.80;99.90;15.10;96305.00;;;;5032722;28;20303;-66
2022/05/29 09:29:43;;;;;;;2.13;1.80;;;13.80;99.90;15.50;96299.00;;;;5031759;28;20205;-67
2022/05/29 09:32:35;;;;;;;2.40;2.20;;;13.90;99.90;15.60;96304.00;;;;5037821;28;20703;-66
2022/05/29 09:35:29;;;;;;;4.93;2.23;;;14.10;99.90;15.60;96302.00;;;;5036032;28;20208;-66
2022/05/29 09:38:27;;;;;;;2.70;1.90;;;14.10;99.90;15.50;96303.00;;;;5038102;28;20217;-68
2022/05/29 09:41:23;;;;;;;5.30;1.97;;;14.00;99.90;15.60;96305.00;;;;5035635;28;20723;-67
2022/05/29 09:44:16;;;;;;;2.20;2.00;;;14.20;99.90;15.60;96312.00;;;;5035784;28;20228;-67
2022/05/29 09:50:14;;;;;;;2.57;1.93;;;14.30;99.90;15.30;96309.00;;;;5044560;28;20216;-67
2022/05/29 09:53:03;;;;;;;5.33;2.13;;;14.20;99.90;15.00;96312.00;;;;5045698;28;20215;-67
2022/05/29 09:55:57;;;;;;;2.63;1.73;;;14.10;99.90;15.00;96314.00;;;;5039724;28;20229;-67
2022/05/29 09:58:51;;;;;;;5.47;2.37;;;14.00;99.90;15.10;96316.00;;;;5043852;28;20216;-67
2022/05/29 10:01:46;;;;;;;4.63;2.00;;;14.00;99.90;14.90;96319.00;;;;5046838;28;20209;-67
2022/05/29 10:04:38;;;;;;;2.70;2.20;;;14.00;99.90;15.00;96324.00;;;;5049160;28;20628;-67
2022/05/29 10:07:37;;;;;;;4.27;2.20;;;13.90;99.90;14.90;96330.00;;;;5047391;28;20227;-67
2022/05/29 10:10:34;;;;;;;2.47;2.27;;;13.80;99.90;14.90;96324.00;;;;5044983;28;20209;-67
2022/05/29 10:13:40;;;;;;;4.13;2.00;;;13.70;99.90;14.90;96327.00;;;;5044753;28;20201;-67
2022/05/29 10:16:37;;;;;;;2.40;1.87;;;13.70;99.90;14.80;96332.00;;;;5037386;28;20225;-67
2022/05/29 10:19:37;;;;;;;2.03;1.90;;;13.70;99.90;13.70;96324.00;;;;5036386;28;20201;-67
2022/05/29 10:22:32;;;;;;;2.30;1.83;;;13.50;99.90;13.40;96331.00;;;;5036651;28;20216;-66
2022/05/29 10:25:24;;;;;;;2.10;1.90;;;13.10;99.90;13.20;96338.00;;;;5048321;28;20312;-67
2022/05/29 10:28:16;;;;;;;5.30;1.63;;;13.00;99.90;12.50;96334.00;;;;5049497;28;20556;-68
2022/05/29 10:31:08;;;;;;;1.90;1.27;;;12.60;99.90;12.10;96336.00;;;;5066398;22;20243;-70
2022/05/29 10:34:07;;;;;;;3.43;1.50;;;12.20;99.90;12.00;96351.00;;;;5047140;28;20212;-66
2022/05/29 10:36:58;;;;;;;2.67;1.37;;;11.90;99.90;12.00;96354.00;;;;5046926;28;20204;-66
2022/05/29 10:39:47;;;;;;;2.80;1.83;;;11.70;99.90;12.20;96359.00;;;;5045060;28;20228;-66
2022/05/29 10:42:45;;;;;;;2.03;1.83;;;11.60;99.90;12.60;96359.00;;;;5033929;28;20232;-65
2022/05/29 10:45:42;;;;;;;6.07;2.20;;;11.60;99.90;12.40;96348.00;;;;5029962;28;20217;-66
2022/05/29 10:49:03;;;;;;;3.57;1.90;;;11.50;99.90;12.50;96356.00;;;;5028127;28;20293;-66
2022/05/29 10:52:34;;;;;;;2.83;1.47;;;11.50;99.90;12.50;96346.00;;;;5025830;28;20715;-66
2022/05/29 10:55:37;;;;;;;9.60;1.60;;;11.50;99.90;12.80;96351.00;;;;5022711;28;20209;-66
2022/05/29 10:58:54;;;;;;;6.17;1.80;;;11.60;99.90;12.90;96349.00;;;;5027546;28;20201;-65
2022/05/29 11:05:20;;;;;;;3.30;1.80;;;11.60;99.90;13.00;96344.00;;;;5024770;28;20241;-66
2022/05/29 11:08:26;;;;;;;1.80;1.50;;;11.80;99.90;12.90;96349.00;;;;5024996;28;20205;-66
2022/05/29 11:11:33;;;;;;;1.60;1.50;;;11.80;99.90;12.70;96356.00;;;;5026741;28;20623;-65
2022/05/29 11:14:54;;;;;;;3.93;1.57;;;11.70;99.90;12.60;96358.00;;;;5023548;28;20220;-66
2022/05/29 11:17:53;;;;;;;1.57;1.47;;;11.70;99.90;12.40;96354.00;;;;5030640;28;20197;-65
2022/05/29 11:20:59;;;;;;;5.33;1.87;;;11.60;99.90;12.30;96359.00;;;;5028196;28;20205;-65
2022/05/29 11:24:28;;;;;;;5.13;1.50;;;11.40;99.90;12.10;96338.00;;;;5026529;28;20212;-65
2022/05/29 11:27:41;;;;;;;3.17;1.50;;;11.40;99.90;12.40;96322.00;;;;5024184;28;20201;-65
2022/05/29 11:30:38;;;;;;;3.50;1.47;;;11.50;99.90;12.30;96320.00;;;;5022754;28;20213;-65
2022/05/29 11:33:50;;;;;;;1.73;1.50;;;11.40;99.90;12.30;96326.00;;;;5019944;28;20205;-65
2022/05/29 11:36:58;;;;;;;3.97;1.53;;;11.40;99.90;12.20;96322.00;;;;5023147;28;20247;-66
2022/05/29 11:39:55;;;;;;;2.57;2.37;;;11.40;99.90;12.30;96327.00;;;;5019528;28;20220;-65
2022/05/29 11:42:52;;;;;;;3.30;1.37;;;11.30;99.90;12.00;96316.00;;;;5022583;28;20224;-65
2022/05/29 11:52:20;;;;;;;2.20;1.60;;;11.40;99.90;12.60;96301.00;;;;5025605;28;20233;-65
2022/05/29 11:55:16;;;;;;;1.50;1.40;;;10.60;99.90;12.50;96304.00;;;;5020522;28;20205;-66
2022/05/29 11:58:13;;;;;;;2.07;1.33;;;11.60;99.90;12.50;96300.00;;;;5021133;28;20222;-66
2022/05/29 12:01:09;;;;;;;1.23;1.13;;;11.40;99.90;12.80;96304.00;;;;5023325;28;20241;-65
2022/05/29 12:04:07;;;;;;;4.50;1.67;;;10.40;99.90;12.90;96306.00;;;;5021522;28;20214;-66
2022/05/29 12:07:07;;;;;;;3.00;1.50;;;11.70;99.90;13.10;96304.00;;;;5017569;28;20727;-66
2022/05/29 12:10:04;;;;;;;1.70;1.23;;;11.70;99.90;13.00;96303.00;;;;5015753;28;20693;-66
2022/05/29 12:13:02;;;;;;;1.13;1.10;;;11.80;99.90;13.00;96296.00;;;;5019620;28;20581;-65
2022/05/29 12:15:59;;;;;;;1.03;1.03;;;11.90;99.90;13.00;96298.00;;;;5020264;28;20206;-66
2022/05/29 12:18:53;;;;;;;1.53;1.43;;;11.90;99.90;12.80;96291.00;;;;5023768;28;20335;-66
2022/05/29 12:21:48;;;;;;;2.57;1.47;;;11.80;99.90;13.00;96295.00;;;;5021382;28;20225;-66
2022/05/29 12:24:50;;;;;;;4.90;1.70;;;11.80;99.90;13.00;96310.00;;;;5022398;28;20674;-66
2022/05/29 12:27:40;;;;;;;2.20;1.53;;;12.10;99.90;13.10;96306.00;;;;5017670;28;20212;-65
2022/05/29 12:30:38;;;;;;;1.30;1.20;;;11.80;99.90;13.00;96293.00;;;;5016931;28;20672;-66
2022/05/29 12:33:27;;;;;;;2.27;1.57;;;11.40;99.90;13.20;96288.00;;;;5028280;28;20197;-66
2022/05/29 12:36:29;;;;;;;1.30;1.20;;;11.90;99.90;13.30;96281.00;;;;5023349;28;20209;-66
2022/05/29 12:39:36;;;;;;;1.00;0.90;;;12.00;99.90;13.30;96294.00;;;;5017364;28;20212;-66
2022/05/29 12:42:48;;;;;;;2.13;1.57;;;12.10;99.90;13.00;96316.00;;;;5027668;28;20221;-66
2022/05/29 12:45:50;;;;;;;1.20;1.13;;;12.20;99.90;12.80;96308.00;;;;5025680;28;20232;-66
2022/05/29 12:49:24;;;;;;;1.53;1.43;;;12.00;99.90;12.30;96301.00;;;;5023068;28;20236;-65
2022/05/29 12:52:19;;;;;;;4.47;2.47;;;11.90;99.90;12.10;96305.00;;;;5007491;28;20225;-66
2022/05/29 12:55:33;;;;;;;1.90;1.80;;;11.70;99.90;12.60;96303.00;;;;5011193;28;20206;-66
2022/05/29 12:58:56;;;;;;;4.27;1.83;;;11.60;99.90;12.80;96292.00;;;;5016587;28;20209;-65
2022/05/29 13:02:01;;;;;;;5.17;2.40;;;11.60;99.90;13.00;96297.00;;;;5017164;28;20236;-65
2022/05/29 13:05:30;;;;;;;1.50;1.40;;;11.80;99.90;13.00;96297.00;;;;5011511;28;20205;-66
2022/05/29 13:09:15;;;;;;;1.30;1.20;;;11.70;99.90;12.40;96293.00;;;;5019016;28;20216;-66
2022/05/29 13:12:12;;;;;;;2.83;1.80;;;11.90;99.90;12.40;96301.00;;;;5015503;28;20597;-66
2022/05/29 13:15:06;;;;;;;1.70;1.60;;;11.10;99.90;12.40;96294.00;;;;5021873;28;20201;-66
2022/05/29 13:18:22;;;;;;;1.93;1.77;;;11.50;99.90;12.30;96292.00;;;;5021758;28;20205;-66
2022/05/29 13:21:16;;;;;;;1.33;1.23;;;11.60;99.90;12.50;96288.00;;;;5016690;28;20247;-66
2022/05/29 13:24:17;;;;;;;1.70;1.60;;;11.50;99.90;12.80;96284.00;;;;5023149;28;20252;-65
2022/05/29 13:27:33;;;;;;;4.93;2.07;;;11.60;99.90;12.80;96299.00;;;;5016124;28;20244;-65
2022/05/29 13:31:12;;;;;;;2.00;1.70;;;11.70;99.90;12.50;96286.00;;;;5018442;28;20206;-65
2022/05/29 13:34:31;;;;;;;2.27;2.07;;;11.40;99.90;12.60;96291.00;;;;5021314;28;20944;-66
2022/05/29 13:37:40;;;;;;;4.90;1.60;;;11.70;99.90;12.40;96291.00;;;;5026036;28;20209;-65
2022/05/29 13:40:45;;;;;;;2.27;2.07;;;11.60;99.90;12.60;96291.00;;;;5018978;28;20209;-65